sensor_id;sensor_type;location;lat;lon;timestamp;pressure;altitude;pressure_sealevel;temperature;humidity
57056;BME280;42945;51.718;5.324;2023-03-19T00:01:40;100905.91;;;8.81;100.00
57056;BME280;42945;51.718;5.324;2023-03-19T00:04:05;100930.84;;;8.76;100.00
57056;BME280;42945;51.718;5.324;2023-03-19T00:06:30;100910.41;;;8.79;100.00
57056;BME280;42945;51.718;5.324;2023-03-19T00:08:56;100886.69;;;8.78;100.00
57056;BME280;42945;51.718;5.324;2023-03-19T00:11:21;100928.16;;;8.77;100.00
57056;BME280;42945;51.718;5.324;2023-03-19T00:13:47;100913.66;;;8.67;100.00
57056;BME280;42945;51.718;5.324;2023-03-19T00:16:12;100877.72;;;8.63;100.00
57056;BME280;42945;51.718;5.324;2023-03-19T00:18:37;100899.72;;;8.63;100.00
57056;BME280;42945;51.718;5.324;2023-03-19T00:21:03;100911.47;;;8.58;100.00
57056;BME280;42945;51.718;5.324;2023-03-19T00:23:28;100900.88;;;8.58;100.00
57056;BME280;42945;51.718;5.324;2023-03-19T00:25:53;100911.88;;;8.67;100.00
57056;BME280;42945;51.718;5.324;2023-03-19T00:28:19;101118.59;;;9.86;100.00
57056;BME280;42945;51.718;5.324;2023-03-19T00:30:44;100906.66;;;8.66;100.00
57056;BME280;42945;51.718;5.324;2023-03-19T00:33:09;100843.25;;;8.64;100.00
57056;BME280;42945;51.718;5.324;2023-03-19T00:35:35;100914.88;;;8.60;100.00
57056;BME280;42945;51.718;5.324;2023-03-19T00:38:00;100914.09;;;8.58;100.00
57056;BME280;42945;51.718;5.324;2023-03-19T00:40:26;100880.22;;;8.66;100.00
57056;BME280;42945;51.718;5.324;2023-03-19T00:42:51;101037.03;;;9.41;100.00
57056;BME280;42945;51.718;5.324;2023-03-19T00:45:16;100952.72;;;8.79;100.00
57056;BME280;42945;51.718;5.324;2023-03-19T00:47:42;100942.22;;;8.78;100.00
57056;BME280;42945;51.718;5.324;2023-03-19T00:50:08;100797.66;;;8.05;100.00
57056;BME280;42945;51.718;5.324;2023-03-19T00:52:34;100941.06;;;8.83;100.00
57056;BME280;42945;51.718;5.324;2023-03-19T00:54:59;100930.00;;;8.75;100.00
57056;BME280;42945;51.718;5.324;2023-03-19T00:57:25;100927.22;;;8.78;100.00
57056;BME280;42945;51.718;5.324;2023-03-19T00:59:50;100931.16;;;8.70;100.00
57056;BME280;42945;51.718;5.324;2023-03-19T01:02:15;100933.88;;;8.68;100.00
57056;BME280;42945;51.718;5.324;2023-03-19T01:04:41;100927.38;;;8.56;100.00
57056;BME280;42945;51.718;5.324;2023-03-19T01:07:07;100930.03;;;8.56;100.00
57056;BME280;42945;51.718;5.324;2023-03-19T01:09:32;100785.31;;;7.87;100.00
57056;BME280;42945;51.718;5.324;2023-03-19T01:11:57;100800.22;;;8.07;100.00
57056;BME280;42945;51.718;5.324;2023-03-19T01:14:23;100869.28;;;8.55;100.00
57056;BME280;42945;51.718;5.324;2023-03-19T01:16:48;100846.69;;;8.30;100.00
57056;BME280;42945;51.718;5.324;2023-03-19T01:19:14;100934.94;;;8.64;100.00
57056;BME280;42945;51.718;5.324;2023-03-19T01:21:40;100812.88;;;7.81;100.00
57056;BME280;42945;51.718;5.324;2023-03-19T01:24:10;100940.75;;;8.53;100.00
57056;BME280;42945;51.718;5.324;2023-03-19T01:26:35;100880.16;;;8.48;100.00
57056;BME280;42945;51.718;5.324;2023-03-19T01:29:00;100898.53;;;8.52;100.00
57056;BME280;42945;51.718;5.324;2023-03-19T01:31:26;100948.59;;;8.55;100.00
57056;BME280;42945;51.718;5.324;2023-03-19T01:33:51;100939.75;;;8.56;100.00
57056;BME280;42945;51.718;5.324;2023-03-19T01:36:16;100902.81;;;8.54;100.00
57056;BME280;42945;51.718;5.324;2023-03-19T01:38:42;100657.34;;;7.21;100.00
57056;BME280;42945;51.718;5.324;2023-03-19T01:41:08;100905.25;;;8.59;100.00
57056;BME280;42945;51.718;5.324;2023-03-19T01:43:33;100912.25;;;8.60;100.00
57056;BME280;42945;51.718;5.324;2023-03-19T01:46:02;104459.91;;;29.57;100.00
57056;BME280;42945;51.718;5.324;2023-03-19T01:48:57;100947.56;;;8.59;100.00
57056;BME280;42945;51.718;5.324;2023-03-19T01:51:34;100856.19;;;7.96;100.00
57056;BME280;42945;51.718;5.324;2023-03-19T01:54:05;100899.50;;;8.68;100.00
57056;BME280;42945;51.718;5.324;2023-03-19T01:56:36;100893.28;;;8.69;100.00
57056;BME280;42945;51.718;5.324;2023-03-19T01:59:08;100927.31;;;8.58;100.00
57056;BME280;42945;51.718;5.324;2023-03-19T02:01:40;100912.16;;;8.61;100.00
57056;BME280;42945;51.718;5.324;2023-03-19T02:04:07;100974.78;;;8.61;100.00
57056;BME280;42945;51.718;5.324;2023-03-19T02:06:34;100925.94;;;8.68;100.00
57056;BME280;42945;51.718;5.324;2023-03-19T02:09:00;100875.59;;;8.52;100.00
57056;BME280;42945;51.718;5.324;2023-03-19T02:11:27;100972.03;;;8.62;100.00
57056;BME280;42945;51.718;5.324;2023-03-19T02:13:52;100915.28;;;8.70;100.00
57056;BME280;42945;51.718;5.324;2023-03-19T02:16:18;100917.88;;;8.52;100.00
57056;BME280;42945;51.718;5.324;2023-03-19T02:18:44;100802.09;;;7.86;100.00
57056;BME280;42945;51.718;5.324;2023-03-19T02:21:13;100847.72;;;7.89;100.00
57056;BME280;42945;51.718;5.324;2023-03-19T02:24:01;100903.13;;;8.48;100.00
57056;BME280;42945;51.718;5.324;2023-03-19T02:26:29;100936.25;;;8.55;100.00
57056;BME280;42945;51.718;5.324;2023-03-19T02:28:54;100930.25;;;8.52;100.00
57056;BME280;42945;51.718;5.324;2023-03-19T02:31:21;100917.59;;;8.58;100.00
57056;BME280;42945;51.718;5.324;2023-03-19T02:33:57;100862.63;;;7.91;100.00
57056;BME280;42945;51.718;5.324;2023-03-19T02:36:26;100918.53;;;8.57;100.00
57056;BME280;42945;51.718;5.324;2023-03-19T02:38:53;100914.34;;;8.53;100.00
57056;BME280;42945;51.718;5.324;2023-03-19T02:41:21;100828.63;;;7.83;100.00
57056;BME280;42945;51.718;5.324;2023-03-19T02:43:46;100886.59;;;8.43;100.00
57056;BME280;42945;51.718;5.324;2023-03-19T02:46:12;100957.53;;;8.52;100.00
57056;BME280;42945;51.718;5.324;2023-03-19T02:48:37;100933.44;;;8.58;100.00
57056;BME280;42945;51.718;5.324;2023-03-19T02:51:04;100924.56;;;8.42;100.00
57056;BME280;42945;51.718;5.324;2023-03-19T02:53:29;100975.13;;;8.53;100.00
57056;BME280;42945;51.718;5.324;2023-03-19T02:55:55;100927.19;;;8.42;100.00
57056;BME280;42945;51.718;5.324;2023-03-19T02:58:20;100977.59;;;8.56;100.00
57056;BME280;42945;51.718;5.324;2023-03-19T03:00:45;100989.88;;;8.38;100.00
57056;BME280;42945;51.718;5.324;2023-03-19T03:03:11;100843.84;;;7.78;100.00
57056;BME280;42945;51.718;5.324;2023-03-19T03:05:37;100932.53;;;8.40;100.00
57056;BME280;42945;51.718;5.324;2023-03-19T03:08:03;100945.63;;;8.43;100.00
57056;BME280;42945;51.718;5.324;2023-03-19T03:10:29;100949.38;;;8.38;100.00
57056;BME280;42945;51.718;5.324;2023-03-19T03:12:55;100966.22;;;8.35;100.00
57056;BME280;42945;51.718;5.324;2023-03-19T03:15:20;100971.78;;;8.29;100.00
57056;BME280;42945;51.718;5.324;2023-03-19T03:17:45;100891.44;;;8.14;100.00
57056;BME280;42945;51.718;5.324;2023-03-19T03:20:12;100868.06;;;8.06;100.00
57056;BME280;42945;51.718;5.324;2023-03-19T03:22:39;100950.56;;;8.12;100.00
57056;BME280;42945;51.718;5.324;2023-03-19T03:25:05;100962.88;;;8.13;100.00
57056;BME280;42945;51.718;5.324;2023-03-19T03:27:31;101186.00;;;9.44;100.00
57056;BME280;42945;51.718;5.324;2023-03-19T03:29:57;100962.69;;;7.97;100.00
57056;BME280;42945;51.718;5.324;2023-03-19T03:32:22;100852.25;;;7.27;100.00
57056;BME280;42945;51.718;5.324;2023-03-19T03:34:48;100979.06;;;8.05;100.00
57056;BME280;42945;51.718;5.324;2023-03-19T03:37:13;100961.19;;;7.91;100.00
57056;BME280;42945;51.718;5.324;2023-03-19T03:39:38;100964.53;;;7.95;100.00
57056;BME280;42945;51.718;5.324;2023-03-19T03:42:04;100977.81;;;7.93;100.00
57056;BME280;42945;51.718;5.324;2023-03-19T03:44:29;100986.53;;;7.95;100.00
57056;BME280;42945;51.718;5.324;2023-03-19T03:46:56;100995.91;;;7.82;100.00
57056;BME280;42945;51.718;5.324;2023-03-19T03:49:22;100920.75;;;7.70;100.00
57056;BME280;42945;51.718;5.324;2023-03-19T03:51:47;100882.09;;;7.07;100.00
57056;BME280;42945;51.718;5.324;2023-03-19T03:54:13;100888.38;;;7.05;100.00
57056;BME280;42945;51.718;5.324;2023-03-19T03:56:38;100933.97;;;7.70;100.00
57056;BME280;42945;51.718;5.324;2023-03-19T03:59:03;100917.66;;;7.60;100.00
57056;BME280;42945;51.718;5.324;2023-03-19T04:01:29;101002.53;;;7.72;100.00
57056;BME280;42945;51.718;5.324;2023-03-19T04:03:54;100960.53;;;7.65;100.00
57056;BME280;42945;51.718;5.324;2023-03-19T04:06:22;100949.00;;;7.47;100.00
57056;BME280;42945;51.718;5.324;2023-03-19T04:08:48;100919.56;;;7.36;100.00
57056;BME280;42945;51.718;5.324;2023-03-19T04:11:15;100839.56;;;6.74;100.00
57056;BME280;42945;51.718;5.324;2023-03-19T04:13:40;101037.50;;;7.97;100.00
57056;BME280;42945;51.718;5.324;2023-03-19T04:16:07;100877.66;;;6.67;100.00
57056;BME280;42945;51.718;5.324;2023-03-19T04:18:34;100982.56;;;7.23;100.00
57056;BME280;42945;51.718;5.324;2023-03-19T04:21:00;100987.53;;;7.31;100.00
57056;BME280;42945;51.718;5.324;2023-03-19T04:23:25;101023.34;;;7.37;100.00
57056;BME280;42945;51.718;5.324;2023-03-19T04:25:51;100978.25;;;7.21;100.00
57056;BME280;42945;51.718;5.324;2023-03-19T04:28:16;101001.03;;;7.23;100.00
57056;BME280;42945;51.718;5.324;2023-03-19T04:30:42;100983.38;;;7.25;100.00
57056;BME280;42945;51.718;5.324;2023-03-19T04:33:09;100994.50;;;7.12;100.00
57056;BME280;42945;51.718;5.324;2023-03-19T04:35:34;100964.59;;;7.11;100.00
57056;BME280;42945;51.718;5.324;2023-03-19T04:38:00;100975.94;;;7.13;100.00
57056;BME280;42945;51.718;5.324;2023-03-19T04:40:25;101002.31;;;7.13;100.00
57056;BME280;42945;51.718;5.324;2023-03-19T04:42:51;100607.94;;;7.06;100.00
57056;BME280;42945;51.718;5.324;2023-03-19T04:45:17;100957.78;;;7.05;100.00
57056;BME280;42945;51.718;5.324;2023-03-19T04:47:43;101078.03;;;7.76;100.00
57056;BME280;42945;51.718;5.324;2023-03-19T04:50:09;100910.09;;;6.45;100.00
57056;BME280;42945;51.718;5.324;2023-03-19T04:52:35;100976.94;;;7.10;100.00
57056;BME280;42945;51.718;5.324;2023-03-19T04:55:04;100968.66;;;7.20;100.00
57056;BME280;42945;51.718;5.324;2023-03-19T04:57:29;101016.72;;;7.26;100.00
57056;BME280;42945;51.718;5.324;2023-03-19T04:59:54;101000.09;;;7.24;100.00
57056;BME280;42945;51.718;5.324;2023-03-19T05:02:20;100990.53;;;7.22;100.00
57056;BME280;42945;51.718;5.324;2023-03-19T05:04:46;101000.59;;;7.12;100.00
57056;BME280;42945;51.718;5.324;2023-03-19T05:07:11;101053.59;;;7.06;100.00
57056;BME280;42945;51.718;5.324;2023-03-19T05:09:36;100959.03;;;6.97;100.00
57056;BME280;42945;51.718;5.324;2023-03-19T05:12:02;101059.47;;;6.90;100.00
57056;BME280;42945;51.718;5.324;2023-03-19T05:14:27;100909.50;;;6.17;100.00
57056;BME280;42945;51.718;5.324;2023-03-19T05:16:52;101006.13;;;6.84;100.00
57056;BME280;42945;51.718;5.324;2023-03-19T05:19:18;100911.84;;;6.24;100.00
57056;BME280;42945;51.718;5.324;2023-03-19T05:21:43;101028.50;;;6.96;100.00
57056;BME280;42945;51.718;5.324;2023-03-19T05:24:09;100910.72;;;6.30;100.00
57056;BME280;42945;51.718;5.324;2023-03-19T05:26:35;100995.56;;;6.84;100.00
57056;BME280;42945;51.718;5.324;2023-03-19T05:29:02;101040.59;;;7.01;100.00
57056;BME280;42945;51.718;5.324;2023-03-19T05:31:27;101008.09;;;7.01;100.00
57056;BME280;42945;51.718;5.324;2023-03-19T05:33:52;101034.72;;;6.95;100.00
57056;BME280;42945;51.718;5.324;2023-03-19T05:36:18;101053.31;;;6.90;100.00
57056;BME280;42945;51.718;5.324;2023-03-19T05:38:43;100917.19;;;6.21;100.00
57056;BME280;42945;51.718;5.324;2023-03-19T05:41:08;101046.53;;;6.84;100.00
57056;BME280;42945;51.718;5.324;2023-03-19T05:43:34;101055.84;;;6.93;100.00
57056;BME280;42945;51.718;5.324;2023-03-19T05:45:59;101074.00;;;6.79;100.00
57056;BME280;42945;51.718;5.324;2023-03-19T05:48:25;101041.88;;;6.69;100.00
57056;BME280;42945;51.718;5.324;2023-03-19T05:50:50;100957.22;;;6.07;100.00
57056;BME280;42945;51.718;5.324;2023-03-19T05:53:17;101029.34;;;6.74;100.00
57056;BME280;42945;51.718;5.324;2023-03-19T05:55:42;101048.50;;;6.79;100.00
57056;BME280;42945;51.718;5.324;2023-03-19T05:58:07;101062.25;;;6.64;100.00
57056;BME280;42945;51.718;5.324;2023-03-19T06:00:33;101055.47;;;6.57;100.00
57056;BME280;42945;51.718;5.324;2023-03-19T06:02:58;101034.06;;;6.66;100.00
57056;BME280;42945;51.718;5.324;2023-03-19T06:05:24;101158.13;;;7.30;100.00
57056;BME280;42945;51.718;5.324;2023-03-19T06:07:50;101070.91;;;6.44;100.00
57056;BME280;42945;51.718;5.324;2023-03-19T06:10:15;101083.91;;;6.72;100.00
57056;BME280;42945;51.718;5.324;2023-03-19T06:12:41;101092.94;;;6.65;100.00
57056;BME280;42945;51.718;5.324;2023-03-19T06:15:07;100935.59;;;5.99;100.00
57056;BME280;42945;51.718;5.324;2023-03-19T06:17:33;101073.03;;;6.58;100.00
57056;BME280;42945;51.718;5.324;2023-03-19T06:19:58;100974.09;;;6.02;100.00
57056;BME280;42945;51.718;5.324;2023-03-19T06:22:24;100968.09;;;5.98;100.00
57056;BME280;42945;51.718;5.324;2023-03-19T06:24:50;101043.97;;;6.59;100.00
57056;BME280;42945;51.718;5.324;2023-03-19T06:27:15;101254.38;;;7.44;100.00
57056;BME280;42945;51.718;5.324;2023-03-19T06:29:40;101066.94;;;6.79;100.00
57056;BME280;42945;51.718;5.324;2023-03-19T06:32:06;101117.34;;;6.94;100.00
57056;BME280;42945;51.718;5.324;2023-03-19T06:34:31;101071.88;;;6.88;100.00
57056;BME280;42945;51.718;5.324;2023-03-19T06:36:57;101119.25;;;7.14;100.00
57056;BME280;42945;51.718;5.324;2023-03-19T06:39:22;101053.13;;;6.96;100.00
57056;BME280;42945;51.718;5.324;2023-03-19T06:41:47;100980.03;;;6.32;100.00
57056;BME280;42945;51.718;5.324;2023-03-19T06:44:13;101080.09;;;7.03;100.00
57056;BME280;42945;51.718;5.324;2023-03-19T06:46:38;101114.47;;;7.00;100.00
57056;BME280;42945;51.718;5.324;2023-03-19T06:49:04;101106.69;;;6.97;100.00
57056;BME280;42945;51.718;5.324;2023-03-19T06:51:29;101077.63;;;6.98;100.00
57056;BME280;42945;51.718;5.324;2023-03-19T06:53:54;101153.91;;;7.26;100.00
57056;BME280;42945;51.718;5.324;2023-03-19T06:56:20;101032.06;;;6.49;100.00
57056;BME280;42945;51.718;5.324;2023-03-19T06:58:46;101175.19;;;7.22;100.00
57056;BME280;42945;51.718;5.324;2023-03-19T07:01:11;101144.16;;;7.28;100.00
57056;BME280;42945;51.718;5.324;2023-03-19T07:03:36;101121.28;;;7.29;100.00
57056;BME280;42945;51.718;5.324;2023-03-19T07:06:02;101091.31;;;7.30;100.00
57056;BME280;42945;51.718;5.324;2023-03-19T07:08:27;101010.22;;;6.69;100.00
57056;BME280;42945;51.718;5.324;2023-03-19T07:10:55;101154.97;;;7.44;100.00
57056;BME280;42945;51.718;5.324;2023-03-19T07:13:20;101127.59;;;7.47;100.00
57056;BME280;42945;51.718;5.324;2023-03-19T07:15:47;101121.22;;;7.53;100.00
57056;BME280;42945;51.718;5.324;2023-03-19T07:18:13;101121.97;;;7.56;100.00
57056;BME280;42945;51.718;5.324;2023-03-19T07:20:38;101148.09;;;7.62;100.00
57056;BME280;42945;51.718;5.324;2023-03-19T07:23:03;101102.84;;;7.49;100.00
57056;BME280;42945;51.718;5.324;2023-03-19T07:25:29;101148.75;;;7.67;100.00
57056;BME280;42945;51.718;5.324;2023-03-19T07:27:55;101201.56;;;7.67;100.00
57056;BME280;42945;51.718;5.324;2023-03-19T07:30:20;101150.59;;;7.65;100.00
57056;BME280;42945;51.718;5.324;2023-03-19T07:32:46;101165.91;;;7.79;100.00
57056;BME280;42945;51.718;5.324;2023-03-19T07:35:11;101113.22;;;7.76;100.00
57056;BME280;42945;51.718;5.324;2023-03-19T07:37:38;101492.34;;;7.82;100.00
57056;BME280;42945;51.718;5.324;2023-03-19T07:40:04;101160.38;;;7.85;100.00
57056;BME280;42945;51.718;5.324;2023-03-19T07:42:29;101159.97;;;7.95;100.00
57056;BME280;42945;51.718;5.324;2023-03-19T07:44:55;101075.63;;;7.27;100.00
57056;BME280;42945;51.718;5.324;2023-03-19T07:47:20;101185.84;;;8.29;100.00
57056;BME280;42945;51.718;5.324;2023-03-19T07:49:45;101141.84;;;8.28;100.00
57056;BME280;42945;51.718;5.324;2023-03-19T07:52:11;101159.88;;;8.18;100.00
57056;BME280;42945;51.718;5.324;2023-03-19T07:54:37;101117.28;;;8.26;100.00
57056;BME280;42945;51.718;5.324;2023-03-19T07:57:02;101157.38;;;8.36;100.00
57056;BME280;42945;51.718;5.324;2023-03-19T07:59:28;101151.84;;;8.42;100.00
57056;BME280;42945;51.718;5.324;2023-03-19T08:01:53;101142.38;;;8.36;100.00
57056;BME280;42945;51.718;5.324;2023-03-19T08:04:18;101187.72;;;8.47;100.00
57056;BME280;42945;51.718;5.324;2023-03-19T08:06:44;101069.22;;;7.75;100.00
57056;BME280;42945;51.718;5.324;2023-03-19T08:09:09;101095.41;;;8.22;100.00
57056;BME280;42945;51.718;5.324;2023-03-19T08:11:35;101413.13;;;9.36;100.00
57056;BME280;42945;51.718;5.324;2023-03-19T08:14:01;101164.25;;;8.60;100.00
57056;BME280;42945;51.718;5.324;2023-03-19T08:16:26;100982.84;;;7.79;100.00
57056;BME280;42945;51.718;5.324;2023-03-19T08:18:52;101146.84;;;8.75;100.00
57056;BME280;42945;51.718;5.324;2023-03-19T08:21:17;101150.16;;;9.18;100.00
57056;BME280;42945;51.718;5.324;2023-03-19T08:23:42;101149.25;;;9.19;100.00
57056;BME280;42945;51.718;5.324;2023-03-19T08:26:08;101119.25;;;9.19;100.00
57056;BME280;42945;51.718;5.324;2023-03-19T08:28:33;101135.28;;;9.16;100.00
57056;BME280;42945;51.718;5.324;2023-03-19T08:31:10;101176.31;;;9.24;100.00
57056;BME280;42945;51.718;5.324;2023-03-19T08:33:36;100997.91;;;8.56;100.00
57056;BME280;42945;51.718;5.324;2023-03-19T08:36:07;101136.03;;;9.56;100.00
57056;BME280;42945;51.718;5.324;2023-03-19T08:38:33;101108.75;;;9.54;100.00
57056;BME280;42945;51.718;5.324;2023-03-19T08:40:58;101142.28;;;9.36;100.00
57056;BME280;42945;51.718;5.324;2023-03-19T08:43:27;101123.38;;;9.43;100.00
57056;BME280;42945;51.718;5.324;2023-03-19T08:45:52;101148.59;;;9.14;100.00
57056;BME280;42945;51.718;5.324;2023-03-19T08:48:17;101102.38;;;9.21;100.00
57056;BME280;42945;51.718;5.324;2023-03-19T08:50:43;101090.94;;;9.21;100.00
57056;BME280;42945;51.718;5.324;2023-03-19T08:53:08;101003.13;;;8.76;100.00
57056;BME280;42945;51.718;5.324;2023-03-19T08:55:33;101130.81;;;9.54;100.00
57056;BME280;42945;51.718;5.324;2023-03-19T08:57:59;101138.44;;;9.60;100.00
57056;BME280;42945;51.718;5.324;2023-03-19T09:00:25;101119.44;;;9.52;100.00
57056;BME280;42945;51.718;5.324;2023-03-19T09:02:51;101163.25;;;9.77;100.00
57056;BME280;42945;51.718;5.324;2023-03-19T09:05:18;101114.47;;;9.63;100.00
57056;BME280;42945;51.718;5.324;2023-03-19T09:07:46;101169.81;;;9.87;100.00
57056;BME280;42945;51.718;5.324;2023-03-19T09:10:12;101116.44;;;9.77;100.00
57056;BME280;42945;51.718;5.324;2023-03-19T09:12:37;101165.47;;;9.67;100.00
57056;BME280;42945;51.718;5.324;2023-03-19T09:15:03;101167.72;;;9.57;100.00
57056;BME280;42945;51.718;5.324;2023-03-19T09:17:28;101057.06;;;8.91;100.00
57056;BME280;42945;51.718;5.324;2023-03-19T09:19:54;101157.59;;;9.48;100.00
57056;BME280;42945;51.718;5.324;2023-03-19T09:22:19;101045.44;;;8.76;100.00
57056;BME280;42945;51.718;5.324;2023-03-19T09:24:44;101186.22;;;9.76;100.00
57056;BME280;42945;51.718;5.324;2023-03-19T09:27:10;101195.81;;;9.79;100.00
57056;BME280;42945;51.718;5.324;2023-03-19T09:29:35;101188.16;;;9.73;100.00
57056;BME280;42945;51.718;5.324;2023-03-19T09:32:00;101095.56;;;9.35;100.00
57056;BME280;42945;51.718;5.324;2023-03-19T09:34:26;101178.56;;;9.89;100.00
57056;BME280;42945;51.718;5.324;2023-03-19T09:36:51;101144.91;;;10.26;100.00
57056;BME280;42945;51.718;5.324;2023-03-19T09:39:16;101194.84;;;10.35;100.00
57056;BME280;42945;51.718;5.324;2023-03-19T09:41:53;101066.63;;;10.01;100.00
57056;BME280;42945;51.718;5.324;2023-03-19T09:44:35;101055.50;;;9.60;100.00
57056;BME280;42945;51.718;5.324;2023-03-19T09:49:42;101109.31;;;11.60;100.00
57056;BME280;42945;51.718;5.324;2023-03-19T09:55:13;101097.41;;;10.04;100.00
57056;BME280;42945;51.718;5.324;2023-03-19T09:57:29;101147.34;;;10.64;100.00
57056;BME280;42945;51.718;5.324;2023-03-19T09:59:57;101180.38;;;10.92;100.00
57056;BME280;42945;51.718;5.324;2023-03-19T10:02:42;101135.63;;;10.68;100.00
57056;BME280;42945;51.718;5.324;2023-03-19T10:05:18;101168.00;;;10.75;100.00
57056;BME280;42945;51.718;5.324;2023-03-19T10:10:44;101197.53;;;11.02;100.00
57056;BME280;42945;51.718;5.324;2023-03-19T10:13:37;101172.97;;;11.14;100.00
57056;BME280;42945;51.718;5.324;2023-03-19T10:16:15;101085.03;;;10.39;100.00
57056;BME280;42945;51.718;5.324;2023-03-19T10:18:46;101072.25;;;9.95;100.00
57056;BME280;42945;51.718;5.324;2023-03-19T10:21:30;101202.34;;;11.11;100.00
57056;BME280;42945;51.718;5.324;2023-03-19T10:24:10;101160.22;;;11.37;100.00
57056;BME280;42945;51.718;5.324;2023-03-19T10:26:37;101177.78;;;10.74;100.00
57056;BME280;42945;51.718;5.324;2023-03-19T10:29:15;101203.75;;;11.01;100.00
57056;BME280;42945;51.718;5.324;2023-03-19T10:31:50;101268.41;;;11.98;100.00
57056;BME280;42945;51.718;5.324;2023-03-19T10:36:47;101080.09;;;10.49;100.00
57056;BME280;42945;51.718;5.324;2023-03-19T10:39:16;101155.31;;;10.97;100.00
57056;BME280;42945;51.718;5.324;2023-03-19T10:44:34;101098.25;;;10.57;100.00
57056;BME280;42945;51.718;5.324;2023-03-19T10:47:10;101209.72;;;11.38;100.00
57056;BME280;42945;51.718;5.324;2023-03-19T10:49:36;101087.13;;;10.33;100.00
57056;BME280;42945;51.718;5.324;2023-03-19T10:52:02;101213.19;;;10.73;100.00
57056;BME280;42945;51.718;5.324;2023-03-19T10:54:28;101056.09;;;10.35;100.00
57056;BME280;42945;51.718;5.324;2023-03-19T10:56:57;101237.91;;;11.25;100.00
57056;BME280;42945;51.718;5.324;2023-03-19T11:01:55;101202.88;;;11.34;100.00
57056;BME280;42945;51.718;5.324;2023-03-19T11:04:24;101230.88;;;11.23;100.00
57056;BME280;42945;51.718;5.324;2023-03-19T11:07:02;101197.06;;;11.27;100.00
57056;BME280;42945;51.718;5.324;2023-03-19T11:09:34;101239.13;;;11.51;100.00
57056;BME280;42945;51.718;5.324;2023-03-19T11:14:48;101202.91;;;11.50;100.00
57056;BME280;42945;51.718;5.324;2023-03-19T11:19:51;101241.50;;;12.19;100.00
57056;BME280;42945;51.718;5.324;2023-03-19T11:25:27;101181.72;;;12.99;100.00
57056;BME280;42945;51.718;5.324;2023-03-19T11:28:14;101150.47;;;11.99;100.00
57056;BME280;42945;51.718;5.324;2023-03-19T11:30:51;101216.53;;;12.52;100.00
57056;BME280;42945;51.718;5.324;2023-03-19T11:39:25;101208.78;;;12.02;100.00
57056;BME280;42945;51.718;5.324;2023-03-19T11:45:02;101205.34;;;11.69;100.00
57056;BME280;42945;51.718;5.324;2023-03-19T11:50:25;101137.50;;;12.09;100.00
57056;BME280;42945;51.718;5.324;2023-03-19T11:53:10;101230.47;;;12.11;100.00
57056;BME280;42945;51.718;5.324;2023-03-19T11:55:41;101214.66;;;12.24;100.00
57056;BME280;42945;51.718;5.324;2023-03-19T12:04:25;101211.53;;;12.01;100.00
57056;BME280;42945;51.718;5.324;2023-03-19T12:07:05;101199.44;;;11.95;100.00
57056;BME280;42945;51.718;5.324;2023-03-19T12:09:52;101209.44;;;12.67;100.00
57056;BME280;42945;51.718;5.324;2023-03-19T12:12:45;101238.50;;;12.25;100.00
57056;BME280;42945;51.718;5.324;2023-03-19T12:15:24;101126.38;;;11.40;100.00
57056;BME280;42945;51.718;5.324;2023-03-19T12:24:00;101234.59;;;11.69;100.00
57056;BME280;42945;51.718;5.324;2023-03-19T12:34:49;101256.84;;;11.34;100.00
57056;BME280;42945;51.718;5.324;2023-03-19T12:42:40;101227.38;;;11.71;100.00
57056;BME280;42945;51.718;5.324;2023-03-19T12:45:28;101109.97;;;10.53;100.00
57056;BME280;42945;51.718;5.324;2023-03-19T12:48:01;101227.53;;;11.20;100.00
57056;BME280;42945;51.718;5.324;2023-03-19T12:50:30;101096.16;;;10.95;100.00
57056;BME280;42945;51.718;5.324;2023-03-19T12:52:59;101164.97;;;10.98;100.00
57056;BME280;42945;51.718;5.324;2023-03-19T12:55:40;101122.16;;;10.89;100.00
57056;BME280;42945;51.718;5.324;2023-03-19T12:58:17;101237.25;;;11.03;100.00
57056;BME280;42945;51.718;5.324;2023-03-19T13:01:01;101104.69;;;10.84;100.00
57056;BME280;42945;51.718;5.324;2023-03-19T13:03:42;101228.22;;;11.55;100.00
57056;BME280;42945;51.718;5.324;2023-03-19T13:06:32;101244.72;;;11.62;100.00
57056;BME280;42945;51.718;5.324;2023-03-19T13:09:14;101263.22;;;11.63;100.00
57056;BME280;42945;51.718;5.324;2023-03-19T13:14:42;101118.66;;;11.98;100.00
57056;BME280;42945;51.718;5.324;2023-03-19T13:19:48;101230.22;;;13.05;100.00
57056;BME280;42945;51.718;5.324;2023-03-19T13:22:24;101433.75;;;14.31;100.00
57056;BME280;42945;51.718;5.324;2023-03-19T13:24:52;101154.03;;;12.88;100.00
57056;BME280;42945;51.718;5.324;2023-03-19T13:27:37;101243.03;;;12.98;100.00
57056;BME280;42945;51.718;5.324;2023-03-19T13:32:51;101179.13;;;12.98;100.00
57056;BME280;42945;51.718;5.324;2023-03-19T13:35:44;101246.66;;;12.97;100.00
57056;BME280;42945;51.718;5.324;2023-03-19T13:40:54;101193.13;;;13.30;100.00
57056;BME280;42945;51.718;5.324;2023-03-19T13:53:39;101240.16;;;12.87;100.00
57056;BME280;42945;51.718;5.324;2023-03-19T13:56:11;101075.97;;;12.01;100.00
57056;BME280;42945;51.718;5.324;2023-03-19T13:58:51;101185.31;;;12.70;100.00
57056;BME280;42945;51.718;5.324;2023-03-19T14:03:54;101227.47;;;13.49;100.00
57056;BME280;42945;51.718;5.324;2023-03-19T14:06:38;101248.59;;;13.38;100.00
57056;BME280;42945;51.718;5.324;2023-03-19T14:09:19;101259.28;;;13.22;100.00
57056;BME280;42945;51.718;5.324;2023-03-19T14:11:53;101194.69;;;13.89;100.00
57056;BME280;42945;51.718;5.324;2023-03-19T14:14:21;101183.28;;;13.45;100.00
57056;BME280;42945;51.718;5.324;2023-03-19T14:16:48;101216.50;;;13.11;100.00
57056;BME280;42945;51.718;5.324;2023-03-19T14:19:17;101247.97;;;13.04;100.00